sensor_id;sensor_type;location;lat;lon;timestamp;temperature;humidity
63313;DHT22;49442;45.640;13.812;2023-11-18T00:01:26;9.80;90.00
63313;DHT22;49442;45.640;13.812;2023-11-18T00:03:55;9.80;89.20
63313;DHT22;49442;45.640;13.812;2023-11-18T00:06:21;9.80;90.00
63313;DHT22;49442;45.640;13.812;2023-11-18T00:08:47;9.80;90.00
63313;DHT22;49442;45.640;13.812;2023-11-18T00:11:13;9.80;89.80
63313;DHT22;49442;45.640;13.812;2023-11-18T00:13:39;9.80;90.10
63313;DHT22;49442;45.640;13.812;2023-11-18T00:16:06;9.80;90.60
63313;DHT22;49442;45.640;13.812;2023-11-18T00:18:31;9.80;88.40
63313;DHT22;49442;45.640;13.812;2023-11-18T00:20:58;9.90;89.30
63313;DHT22;49442;45.640;13.812;2023-11-18T00:23:24;9.90;91.00
63313;DHT22;49442;45.640;13.812;2023-11-18T00:25:52;9.80;90.50
63313;DHT22;49442;45.640;13.812;2023-11-18T00:28:18;9.80;90.60
63313;DHT22;49442;45.640;13.812;2023-11-18T00:30:45;9.80;89.90
63313;DHT22;49442;45.640;13.812;2023-11-18T00:33:11;9.80;90.50
63313;DHT22;49442;45.640;13.812;2023-11-18T00:35:36;9.70;90.50
63313;DHT22;49442;45.640;13.812;2023-11-18T00:38:02;9.70;90.10
63313;DHT22;49442;45.640;13.812;2023-11-18T00:40:28;9.70;91.80
63313;DHT22;49442;45.640;13.812;2023-11-18T00:42:57;9.70;92.90
63313;DHT22;49442;45.640;13.812;2023-11-18T00:45:23;9.70;92.90
63313;DHT22;49442;45.640;13.812;2023-11-18T00:47:49;9.60;92.90
63313;DHT22;49442;45.640;13.812;2023-11-18T00:50:14;9.50;93.80
63313;DHT22;49442;45.640;13.812;2023-11-18T00:52:40;9.30;93.70
63313;DHT22;49442;45.640;13.812;2023-11-18T00:55:09;9.30;94.80
63313;DHT22;49442;45.640;13.812;2023-11-18T00:57:39;9.20;94.70
63313;DHT22;49442;45.640;13.812;2023-11-18T01:00:07;9.10;97.00
63313;DHT22;49442;45.640;13.812;2023-11-18T01:02:33;8.90;96.80
63313;DHT22;49442;45.640;13.812;2023-11-18T01:04:58;8.80;96.70
63313;DHT22;49442;45.640;13.812;2023-11-18T01:07:24;8.60;97.00
63313;DHT22;49442;45.640;13.812;2023-11-18T01:09:50;8.60;97.80
63313;DHT22;49442;45.640;13.812;2023-11-18T01:12:15;8.60;99.20
63313;DHT22;49442;45.640;13.812;2023-11-18T01:14:41;8.50;97.10
63313;DHT22;49442;45.640;13.812;2023-11-18T01:17:07;8.50;97.90
63313;DHT22;49442;45.640;13.812;2023-11-18T01:19:35;8.40;99.90
63313;DHT22;49442;45.640;13.812;2023-11-18T01:22:01;8.20;99.90
63313;DHT22;49442;45.640;13.812;2023-11-18T01:24:33;8.00;99.90
63313;DHT22;49442;45.640;13.812;2023-11-18T01:26:59;7.90;99.90
63313;DHT22;49442;45.640;13.812;2023-11-18T01:29:25;7.90;99.90
63313;DHT22;49442;45.640;13.812;2023-11-18T01:31:52;7.90;99.90
63313;DHT22;49442;45.640;13.812;2023-11-18T01:34:21;7.90;99.90
63313;DHT22;49442;45.640;13.812;2023-11-18T01:36:47;7.90;99.90
63313;DHT22;49442;45.640;13.812;2023-11-18T01:39:15;7.90;99.90
63313;DHT22;49442;45.640;13.812;2023-11-18T01:41:41;7.80;99.90
63313;DHT22;49442;45.640;13.812;2023-11-18T01:44:07;7.70;99.90
63313;DHT22;49442;45.640;13.812;2023-11-18T01:46:33;7.60;99.90
63313;DHT22;49442;45.640;13.812;2023-11-18T01:49:02;7.50;99.90
63313;DHT22;49442;45.640;13.812;2023-11-18T01:51:29;7.50;99.90
63313;DHT22;49442;45.640;13.812;2023-11-18T01:53:56;7.50;99.90
63313;DHT22;49442;45.640;13.812;2023-11-18T01:56:25;7.60;99.90
63313;DHT22;49442;45.640;13.812;2023-11-18T01:58:52;7.70;99.90
63313;DHT22;49442;45.640;13.812;2023-11-18T02:01:19;7.80;99.90
63313;DHT22;49442;45.640;13.812;2023-11-18T02:03:44;7.80;99.90
63313;DHT22;49442;45.640;13.812;2023-11-18T02:06:10;7.80;99.90
63313;DHT22;49442;45.640;13.812;2023-11-18T02:08:37;7.80;99.80
63313;DHT22;49442;45.640;13.812;2023-11-18T02:13:39;7.90;99.20
63313;DHT22;49442;45.640;13.812;2023-11-18T02:16:07;7.80;98.90
63313;DHT22;49442;45.640;13.812;2023-11-18T02:18:35;7.80;98.50
63313;DHT22;49442;45.640;13.812;2023-11-18T02:21:06;7.90;99.10
63313;DHT22;49442;45.640;13.812;2023-11-18T02:23:33;7.90;99.10
63313;DHT22;49442;45.640;13.812;2023-11-18T02:25:59;7.90;98.90
63313;DHT22;49442;45.640;13.812;2023-11-18T02:28:27;7.90;99.60
63313;DHT22;49442;45.640;13.812;2023-11-18T02:31:11;7.80;99.00
63313;DHT22;49442;45.640;13.812;2023-11-18T02:33:48;7.80;99.20
63313;DHT22;49442;45.640;13.812;2023-11-18T02:36:26;7.80;99.90
63313;DHT22;49442;45.640;13.812;2023-11-18T02:39:02;7.80;99.40
63313;DHT22;49442;45.640;13.812;2023-11-18T02:41:33;7.80;99.90
63313;DHT22;49442;45.640;13.812;2023-11-18T02:44:00;7.80;99.70
63313;DHT22;49442;45.640;13.812;2023-11-18T02:46:27;7.80;99.90
63313;DHT22;49442;45.640;13.812;2023-11-18T02:48:53;7.70;99.00
63313;DHT22;49442;45.640;13.812;2023-11-18T02:51:22;7.80;99.60
63313;DHT22;49442;45.640;13.812;2023-11-18T02:53:48;7.80;99.90
63313;DHT22;49442;45.640;13.812;2023-11-18T02:56:13;7.80;98.90
63313;DHT22;49442;45.640;13.812;2023-11-18T02:58:39;7.80;98.90
63313;DHT22;49442;45.640;13.812;2023-11-18T03:01:05;7.80;98.60
63313;DHT22;49442;45.640;13.812;2023-11-18T03:03:30;7.70;98.30
63313;DHT22;49442;45.640;13.812;2023-11-18T03:05:57;7.80;98.70
63313;DHT22;49442;45.640;13.812;2023-11-18T03:08:25;7.80;98.80
63313;DHT22;49442;45.640;13.812;2023-11-18T03:10:54;7.80;98.80
63313;DHT22;49442;45.640;13.812;2023-11-18T03:13:19;7.80;99.60
63313;DHT22;49442;45.640;13.812;2023-11-18T03:15:45;7.80;99.70
63313;DHT22;49442;45.640;13.812;2023-11-18T03:18:14;7.70;99.90
63313;DHT22;49442;45.640;13.812;2023-11-18T03:20:40;7.70;99.90
63313;DHT22;49442;45.640;13.812;2023-11-18T03:23:06;7.70;99.90
63313;DHT22;49442;45.640;13.812;2023-11-18T03:25:34;7.70;99.90
63313;DHT22;49442;45.640;13.812;2023-11-18T03:28:00;7.60;99.90
63313;DHT22;49442;45.640;13.812;2023-11-18T03:30:26;7.60;99.90
63313;DHT22;49442;45.640;13.812;2023-11-18T03:32:51;7.60;99.90
63313;DHT22;49442;45.640;13.812;2023-11-18T03:35:17;7.60;99.90
63313;DHT22;49442;45.640;13.812;2023-11-18T03:37:43;7.60;99.90
63313;DHT22;49442;45.640;13.812;2023-11-18T03:40:13;7.60;99.90
63313;DHT22;49442;45.640;13.812;2023-11-18T03:42:40;7.50;99.90
63313;DHT22;49442;45.640;13.812;2023-11-18T03:45:06;7.50;99.90
63313;DHT22;49442;45.640;13.812;2023-11-18T03:47:32;7.50;99.90
63313;DHT22;49442;45.640;13.812;2023-11-18T03:49:59;7.50;99.90
63313;DHT22;49442;45.640;13.812;2023-11-18T03:52:25;7.50;99.90
63313;DHT22;49442;45.640;13.812;2023-11-18T03:54:51;7.50;99.90
63313;DHT22;49442;45.640;13.812;2023-11-18T03:57:17;7.50;99.90
63313;DHT22;49442;45.640;13.812;2023-11-18T03:59:42;7.50;99.90
63313;DHT22;49442;45.640;13.812;2023-11-18T04:02:08;7.50;99.90
63313;DHT22;49442;45.640;13.812;2023-11-18T04:04:37;7.50;99.90
63313;DHT22;49442;45.640;13.812;2023-11-18T04:07:03;7.40;99.90
63313;DHT22;49442;45.640;13.812;2023-11-18T04:09:29;7.40;99.90
63313;DHT22;49442;45.640;13.812;2023-11-18T04:11:55;7.40;99.90
63313;DHT22;49442;45.640;13.812;2023-11-18T04:14:21;7.30;99.90
63313;DHT22;49442;45.640;13.812;2023-11-18T04:16:47;7.30;99.90
63313;DHT22;49442;45.640;13.812;2023-11-18T04:19:14;7.30;99.90
63313;DHT22;49442;45.640;13.812;2023-11-18T04:21:40;7.30;99.90
63313;DHT22;49442;45.640;13.812;2023-11-18T04:24:06;7.30;99.90
63313;DHT22;49442;45.640;13.812;2023-11-18T04:26:32;7.40;99.90
63313;DHT22;49442;45.640;13.812;2023-11-18T04:28:58;7.40;99.90
63313;DHT22;49442;45.640;13.812;2023-11-18T04:31:26;7.40;99.90
63313;DHT22;49442;45.640;13.812;2023-11-18T04:33:52;7.40;99.90
63313;DHT22;49442;45.640;13.812;2023-11-18T04:36:18;7.40;99.90
63313;DHT22;49442;45.640;13.812;2023-11-18T04:38:47;7.40;99.90
63313;DHT22;49442;45.640;13.812;2023-11-18T04:41:13;7.30;99.90
63313;DHT22;49442;45.640;13.812;2023-11-18T04:43:39;7.30;99.90
63313;DHT22;49442;45.640;13.812;2023-11-18T04:46:07;7.20;99.90
63313;DHT22;49442;45.640;13.812;2023-11-18T04:48:33;7.20;99.90
63313;DHT22;49442;45.640;13.812;2023-11-18T04:51:00;7.10;99.90
63313;DHT22;49442;45.640;13.812;2023-11-18T04:53:26;7.20;99.90
63313;DHT22;49442;45.640;13.812;2023-11-18T04:55:52;7.10;99.90
63313;DHT22;49442;45.640;13.812;2023-11-18T04:58:18;7.20;99.90
63313;DHT22;49442;45.640;13.812;2023-11-18T05:00:44;7.20;99.90
63313;DHT22;49442;45.640;13.812;2023-11-18T05:03:10;7.20;99.90
63313;DHT22;49442;45.640;13.812;2023-11-18T05:05:37;7.20;99.90
63313;DHT22;49442;45.640;13.812;2023-11-18T05:08:06;7.20;99.90
63313;DHT22;49442;45.640;13.812;2023-11-18T05:10:33;7.20;99.90
63313;DHT22;49442;45.640;13.812;2023-11-18T05:12:59;7.20;99.90
63313;DHT22;49442;45.640;13.812;2023-11-18T05:15:25;7.20;99.90
63313;DHT22;49442;45.640;13.812;2023-11-18T05:17:54;7.20;99.90
63313;DHT22;49442;45.640;13.812;2023-11-18T05:20:20;7.20;99.90
63313;DHT22;49442;45.640;13.812;2023-11-18T05:22:46;7.20;99.90
63313;DHT22;49442;45.640;13.812;2023-11-18T05:25:12;7.10;99.90
63313;DHT22;49442;45.640;13.812;2023-11-18T05:27:38;7.10;99.90
63313;DHT22;49442;45.640;13.812;2023-11-18T05:30:11;7.10;99.90
63313;DHT22;49442;45.640;13.812;2023-11-18T05:32:37;7.10;99.90
63313;DHT22;49442;45.640;13.812;2023-11-18T05:35:04;7.00;99.90
63313;DHT22;49442;45.640;13.812;2023-11-18T05:37:30;7.00;99.90
63313;DHT22;49442;45.640;13.812;2023-11-18T05:40:01;7.10;99.90
63313;DHT22;49442;45.640;13.812;2023-11-18T05:42:35;7.10;99.90
63313;DHT22;49442;45.640;13.812;2023-11-18T05:45:05;7.10;99.90
63313;DHT22;49442;45.640;13.812;2023-11-18T05:47:33;7.10;99.90
63313;DHT22;49442;45.640;13.812;2023-11-18T05:49:59;7.20;99.90
63313;DHT22;49442;45.640;13.812;2023-11-18T05:52:25;7.20;99.90
63313;DHT22;49442;45.640;13.812;2023-11-18T05:54:51;7.20;99.90
63313;DHT22;49442;45.640;13.812;2023-11-18T05:57:17;7.20;99.90
63313;DHT22;49442;45.640;13.812;2023-11-18T05:59:43;7.30;99.90
63313;DHT22;49442;45.640;13.812;2023-11-18T06:02:09;7.30;99.90
63313;DHT22;49442;45.640;13.812;2023-11-18T06:04:43;7.30;99.90
63313;DHT22;49442;45.640;13.812;2023-11-18T06:07:08;7.20;99.90
63313;DHT22;49442;45.640;13.812;2023-11-18T06:09:34;7.20;99.90
63313;DHT22;49442;45.640;13.812;2023-11-18T06:12:00;7.20;99.90
63313;DHT22;49442;45.640;13.812;2023-11-18T06:14:26;7.20;99.70
63313;DHT22;49442;45.640;13.812;2023-11-18T06:16:52;7.20;99.70
63313;DHT22;49442;45.640;13.812;2023-11-18T06:19:17;7.20;99.70
63313;DHT22;49442;45.640;13.812;2023-11-18T06:21:44;7.30;99.90
63313;DHT22;49442;45.640;13.812;2023-11-18T06:24:10;7.20;99.90
63313;DHT22;49442;45.640;13.812;2023-11-18T06:26:38;7.30;99.90
63313;DHT22;49442;45.640;13.812;2023-11-18T06:29:04;7.30;99.90
63313;DHT22;49442;45.640;13.812;2023-11-18T06:31:31;7.30;99.90
63313;DHT22;49442;45.640;13.812;2023-11-18T06:33:57;7.30;99.90
63313;DHT22;49442;45.640;13.812;2023-11-18T06:36:23;7.30;99.90
63313;DHT22;49442;45.640;13.812;2023-11-18T06:38:52;7.30;99.90
63313;DHT22;49442;45.640;13.812;2023-11-18T06:41:20;7.30;99.90
63313;DHT22;49442;45.640;13.812;2023-11-18T06:43:48;7.30;99.90
63313;DHT22;49442;45.640;13.812;2023-11-18T06:46:22;7.30;99.90
63313;DHT22;49442;45.640;13.812;2023-11-18T06:48:54;7.30;99.90
63313;DHT22;49442;45.640;13.812;2023-11-18T06:51:24;7.30;99.90
63313;DHT22;49442;45.640;13.812;2023-11-18T06:53:51;7.30;99.90
63313;DHT22;49442;45.640;13.812;2023-11-18T06:56:17;7.20;99.90
63313;DHT22;49442;45.640;13.812;2023-11-18T06:58:43;7.20;99.90
63313;DHT22;49442;45.640;13.812;2023-11-18T07:01:12;7.20;99.90
63313;DHT22;49442;45.640;13.812;2023-11-18T07:03:39;7.10;99.90
63313;DHT22;49442;45.640;13.812;2023-11-18T07:06:06;7.10;99.90
63313;DHT22;49442;45.640;13.812;2023-11-18T07:08:32;7.10;99.90
63313;DHT22;49442;45.640;13.812;2023-11-18T07:11:00;7.10;99.90
63313;DHT22;49442;45.640;13.812;2023-11-18T07:13:30;7.30;99.90
63313;DHT22;49442;45.640;13.812;2023-11-18T07:15:55;7.30;99.90
63313;DHT22;49442;45.640;13.812;2023-11-18T07:18:23;7.40;99.90
63313;DHT22;49442;45.640;13.812;2023-11-18T07:20:49;7.50;99.90
63313;DHT22;49442;45.640;13.812;2023-11-18T07:23:20;7.50;99.90
63313;DHT22;49442;45.640;13.812;2023-11-18T07:25:46;7.70;99.90
63313;DHT22;49442;45.640;13.812;2023-11-18T07:28:13;7.80;99.90
63313;DHT22;49442;45.640;13.812;2023-11-18T07:30:45;7.90;99.90
63313;DHT22;49442;45.640;13.812;2023-11-18T07:33:15;8.10;99.90
63313;DHT22;49442;45.640;13.812;2023-11-18T07:35:41;8.20;99.90
63313;DHT22;49442;45.640;13.812;2023-11-18T07:38:07;8.30;99.90
63313;DHT22;49442;45.640;13.812;2023-11-18T07:40:33;8.40;99.90
63313;DHT22;49442;45.640;13.812;2023-11-18T07:43:00;8.50;99.90
63313;DHT22;49442;45.640;13.812;2023-11-18T07:45:28;8.60;99.90
63313;DHT22;49442;45.640;13.812;2023-11-18T07:47:57;8.60;99.90
63313;DHT22;49442;45.640;13.812;2023-11-18T07:50:23;8.80;99.90
63313;DHT22;49442;45.640;13.812;2023-11-18T07:52:48;8.80;99.90
63313;DHT22;49442;45.640;13.812;2023-11-18T07:55:14;9.00;99.90
63313;DHT22;49442;45.640;13.812;2023-11-18T07:57:40;9.20;99.90
63313;DHT22;49442;45.640;13.812;2023-11-18T08:00:07;9.40;99.90
63313;DHT22;49442;45.640;13.812;2023-11-18T08:02:39;9.40;99.90
63313;DHT22;49442;45.640;13.812;2023-11-18T08:05:05;9.60;99.90
63313;DHT22;49442;45.640;13.812;2023-11-18T08:07:49;9.70;99.90
63313;DHT22;49442;45.640;13.812;2023-11-18T08:10:18;9.90;99.90
63313;DHT22;49442;45.640;13.812;2023-11-18T08:12:44;10.20;99.90
63313;DHT22;49442;45.640;13.812;2023-11-18T08:15:10;10.50;99.90
63313;DHT22;49442;45.640;13.812;2023-11-18T08:17:36;10.80;99.90
63313;DHT22;49442;45.640;13.812;2023-11-18T08:20:02;11.20;99.90
63313;DHT22;49442;45.640;13.812;2023-11-18T08:22:41;11.20;99.90
63313;DHT22;49442;45.640;13.812;2023-11-18T08:25:10;11.40;99.90
63313;DHT22;49442;45.640;13.812;2023-11-18T08:27:35;11.50;99.90
63313;DHT22;49442;45.640;13.812;2023-11-18T08:30:02;11.80;99.90
63313;DHT22;49442;45.640;13.812;2023-11-18T08:32:31;12.90;99.90
63313;DHT22;49442;45.640;13.812;2023-11-18T08:34:57;14.30;99.90
63313;DHT22;49442;45.640;13.812;2023-11-18T08:37:22;17.90;99.90
63313;DHT22;49442;45.640;13.812;2023-11-18T08:39:48;17.70;98.90
63313;DHT22;49442;45.640;13.812;2023-11-18T08:42:14;17.50;99.00
63313;DHT22;49442;45.640;13.812;2023-11-18T08:44:40;17.40;99.30
63313;DHT22;49442;45.640;13.812;2023-11-18T08:47:05;17.50;99.40
63313;DHT22;49442;45.640;13.812;2023-11-18T08:49:34;18.50;98.70
63313;DHT22;49442;45.640;13.812;2023-11-18T08:51:59;19.30;97.50
63313;DHT22;49442;45.640;13.812;2023-11-18T08:54:26;21.80;95.60
63313;DHT22;49442;45.640;13.812;2023-11-18T08:57:04;21.10;94.40
63313;DHT22;49442;45.640;13.812;2023-11-18T08:59:45;20.50;94.70
63313;DHT22;49442;45.640;13.812;2023-11-18T09:02:11;19.00;95.80
63313;DHT22;49442;45.640;13.812;2023-11-18T09:04:41;17.90;96.50
63313;DHT22;49442;45.640;13.812;2023-11-18T09:07:09;17.00;98.20
63313;DHT22;49442;45.640;13.812;2023-11-18T09:09:35;16.60;99.40
63313;DHT22;49442;45.640;13.812;2023-11-18T09:12:01;18.10;99.90
63313;DHT22;49442;45.640;13.812;2023-11-18T09:14:28;18.80;99.10
63313;DHT22;49442;45.640;13.812;2023-11-18T09:16:54;19.40;98.00
63313;DHT22;49442;45.640;13.812;2023-11-18T09:19:25;19.40;98.30
63313;DHT22;49442;45.640;13.812;2023-11-18T09:21:50;20.20;97.70
63313;DHT22;49442;45.640;13.812;2023-11-18T09:24:17;22.70;95.70
63313;DHT22;49442;45.640;13.812;2023-11-18T09:26:46;24.80;91.00
63313;DHT22;49442;45.640;13.812;2023-11-18T09:29:19;26.50;87.00
63313;DHT22;49442;45.640;13.812;2023-11-18T09:31:47;27.30;76.20
63313;DHT22;49442;45.640;13.812;2023-11-18T09:34:16;26.50;77.20
63313;DHT22;49442;45.640;13.812;2023-11-18T09:36:43;24.60;76.70
63313;DHT22;49442;45.640;13.812;2023-11-18T09:39:09;22.70;84.20
63313;DHT22;49442;45.640;13.812;2023-11-18T09:41:42;20.60;90.20
63313;DHT22;49442;45.640;13.812;2023-11-18T09:44:09;18.80;93.30
63313;DHT22;49442;45.640;13.812;2023-11-18T09:46:40;17.50;97.10
63313;DHT22;49442;45.640;13.812;2023-11-18T09:49:25;16.50;97.20
63313;DHT22;49442;45.640;13.812;2023-11-18T09:51:59;15.80;97.40
63313;DHT22;49442;45.640;13.812;2023-11-18T09:54:50;15.30;99.50
63313;DHT22;49442;45.640;13.812;2023-11-18T10:02:48;14.60;97.30
63313;DHT22;49442;45.640;13.812;2023-11-18T10:05:16;14.50;99.90
63313;DHT22;49442;45.640;13.812;2023-11-18T10:07:46;14.40;99.90
63313;DHT22;49442;45.640;13.812;2023-11-18T10:10:15;14.40;99.90
63313;DHT22;49442;45.640;13.812;2023-11-18T10:12:45;14.40;99.90
63313;DHT22;49442;45.640;13.812;2023-11-18T10:15:14;14.40;99.90
63313;DHT22;49442;45.640;13.812;2023-11-18T10:17:45;14.40;97.90
63313;DHT22;49442;45.640;13.812;2023-11-18T10:20:50;14.50;99.50
63313;DHT22;49442;45.640;13.812;2023-11-18T10:23:21;14.50;98.10
63313;DHT22;49442;45.640;13.812;2023-11-18T10:31:08;14.50;98.60
63313;DHT22;49442;45.640;13.812;2023-11-18T10:33:39;14.50;98.50
63313;DHT22;49442;45.640;13.812;2023-11-18T10:36:19;14.50;95.60
63313;DHT22;49442;45.640;13.812;2023-11-18T10:38:52;14.50;96.50
63313;DHT22;49442;45.640;13.812;2023-11-18T10:41:21;14.50;99.40
63313;DHT22;49442;45.640;13.812;2023-11-18T10:43:47;14.50;99.40
63313;DHT22;49442;45.640;13.812;2023-11-18T10:46:15;14.50;94.20
63313;DHT22;49442;45.640;13.812;2023-11-18T10:48:48;14.60;95.10
63313;DHT22;49442;45.640;13.812;2023-11-18T10:51:18;14.70;97.90
63313;DHT22;49442;45.640;13.812;2023-11-18T10:53:52;14.60;95.30
63313;DHT22;49442;45.640;13.812;2023-11-18T10:56:19;14.50;95.20
63313;DHT22;49442;45.640;13.812;2023-11-18T10:58:50;14.40;98.40
63313;DHT22;49442;45.640;13.812;2023-11-18T11:01:30;14.40;96.00
63313;DHT22;49442;45.640;13.812;2023-11-18T11:03:57;14.40;99.00
63313;DHT22;49442;45.640;13.812;2023-11-18T11:06:24;14.40;98.70
63313;DHT22;49442;45.640;13.812;2023-11-18T11:08:54;14.40;96.30
63313;DHT22;49442;45.640;13.812;2023-11-18T11:11:21;14.30;97.10
63313;DHT22;49442;45.640;13.812;2023-11-18T11:13:54;14.40;97.70
63313;DHT22;49442;45.640;13.812;2023-11-18T11:16:26;14.40;97.70
63313;DHT22;49442;45.640;13.812;2023-11-18T11:18:55;14.40;99.90
63313;DHT22;49442;45.640;13.812;2023-11-18T11:21:29;14.50;96.70
63313;DHT22;49442;45.640;13.812;2023-11-18T11:24:04;14.60;97.70
63313;DHT22;49442;45.640;13.812;2023-11-18T11:27:45;14.60;96.90
63313;DHT22;49442;45.640;13.812;2023-11-18T11:29:59;14.70;96.00
63313;DHT22;49442;45.640;13.812;2023-11-18T11:32:40;14.70;97.10
63313;DHT22;49442;45.640;13.812;2023-11-18T11:35:18;14.70;96.70
63313;DHT22;49442;45.640;13.812;2023-11-18T11:37:47;14.60;95.90
63313;DHT22;49442;45.640;13.812;2023-11-18T11:40:14;14.60;96.30
63313;DHT22;49442;45.640;13.812;2023-11-18T11:42:50;14.50;96.50
63313;DHT22;49442;45.640;13.812;2023-11-18T11:45:25;14.50;93.50
63313;DHT22;49442;45.640;13.812;2023-11-18T11:47:54;14.40;94.90
63313;DHT22;49442;45.640;13.812;2023-11-18T11:50:54;14.40;98.90
63313;DHT22;49442;45.640;13.812;2023-11-18T11:53:24;14.40;97.70
63313;DHT22;49442;45.640;13.812;2023-11-18T11:55:53;14.40;95.80
63313;DHT22;49442;45.640;13.812;2023-11-18T11:58:29;14.40;94.60
63313;DHT22;49442;45.640;13.812;2023-11-18T12:01:02;14.40;98.10
63313;DHT22;49442;45.640;13.812;2023-11-18T12:03:38;14.40;98.10
63313;DHT22;49442;45.640;13.812;2023-11-18T12:06:05;14.40;95.30
63313;DHT22;49442;45.640;13.812;2023-11-18T12:08:35;14.30;96.10
63313;DHT22;49442;45.640;13.812;2023-11-18T12:11:02;14.30;95.00
63313;DHT22;49442;45.640;13.812;2023-11-18T12:13:28;14.30;97.80
63313;DHT22;49442;45.640;13.812;2023-11-18T12:15:59;14.20;98.40
63313;DHT22;49442;45.640;13.812;2023-11-18T12:18:35;14.10;99.90
63313;DHT22;49442;45.640;13.812;2023-11-18T12:21:03;14.10;99.90
63313;DHT22;49442;45.640;13.812;2023-11-18T12:23:30;14.00;99.90
63313;DHT22;49442;45.640;13.812;2023-11-18T12:25:57;14.00;99.90
63313;DHT22;49442;45.640;13.812;2023-11-18T12:28:33;13.90;99.90
63313;DHT22;49442;45.640;13.812;2023-11-18T12:31:07;13.90;99.90
63313;DHT22;49442;45.640;13.812;2023-11-18T12:34:00;13.90;99.90
63313;DHT22;49442;45.640;13.812;2023-11-18T12:42:06;14.10;99.90
63313;DHT22;49442;45.640;13.812;2023-11-18T12:44:39;14.10;99.00
63313;DHT22;49442;45.640;13.812;2023-11-18T12:47:12;14.10;99.90
63313;DHT22;49442;45.640;13.812;2023-11-18T12:49:43;14.10;99.90
63313;DHT22;49442;45.640;13.812;2023-11-18T12:52:10;14.10;99.90
63313;DHT22;49442;45.640;13.812;2023-11-18T12:54:38;14.10;99.90
63313;DHT22;49442;45.640;13.812;2023-11-18T12:57:09;14.10;99.90
63313;DHT22;49442;45.640;13.812;2023-11-18T12:59:35;14.20;99.90
63313;DHT22;49442;45.640;13.812;2023-11-18T13:02:01;14.20;99.90
63313;DHT22;49442;45.640;13.812;2023-11-18T13:04:31;14.20;96.80
63313;DHT22;49442;45.640;13.812;2023-11-18T13:06:58;14.30;99.30
63313;DHT22;49442;45.640;13.812;2023-11-18T13:09:26;14.20;99.90
63313;DHT22;49442;45.640;13.812;2023-11-18T13:11:58;14.20;99.20
63313;DHT22;49442;45.640;13.812;2023-11-18T13:14:26;14.20;99.90
63313;DHT22;49442;45.640;13.812;2023-11-18T13:16:55;14.20;99.90
63313;DHT22;49442;45.640;13.812;2023-11-18T13:19:28;14.20;99.90
63313;DHT22;49442;45.640;13.812;2023-11-18T13:22:01;14.20;99.90
63313;DHT22;49442;45.640;13.812;2023-11-18T13:24:37;14.20;99.90
63313;DHT22;49442;45.640;13.812;2023-11-18T13:27:05;14.30;99.90
63313;DHT22;49442;45.640;13.812;2023-11-18T13:29:36;14.30;99.90
63313;DHT22;49442;45.640;13.812;2023-11-18T13:32:05;14.20;99.90
63313;DHT22;49442;45.640;13.812;2023-11-18T13:34:33;14.10;99.90
63313;DHT22;49442;45.640;13.812;2023-11-18T13:37:02;14.00;99.90
63313;DHT22;49442;45.640;13.812;2023-11-18T13:39:28;13.90;99.90
63313;DHT22;49442;45.640;13.812;2023-11-18T13:41:54;13.90;99.90
63313;DHT22;49442;45.640;13.812;2023-11-18T13:44:38;13.80;99.90
63313;DHT22;49442;45.640;13.812;2023-11-18T13:47:07;13.70;99.90
63313;DHT22;49442;45.640;13.812;2023-11-18T13:49:39;13.70;99.90
63313;DHT22;49442;45.640;13.812;2023-11-18T13:52:06;13.60;99.90
63313;DHT22;49442;45.640;13.812;2023-11-18T13:54:35;13.60;99.90
63313;DHT22;49442;45.640;13.812;2023-11-18T13:57:01;13.50;99.90
63313;DHT22;49442;45.640;13.812;2023-11-18T13:59:29;13.40;99.90
63313;DHT22;49442;45.640;13.812;2023-11-18T14:01:56;13.30;99.90
63313;DHT22;49442;45.640;13.812;2023-11-18T14:04:27;13.20;99.90
63313;DHT22;49442;45.640;13.812;2023-11-18T14:06:56;13.10;99.90
63313;DHT22;49442;45.640;13.812;2023-11-18T14:09:22;13.00;99.90
63313;DHT22;49442;45.640;13.812;2023-11-18T14:11:54;13.00;99.90
63313;DHT22;49442;45.640;13.812;2023-11-18T14:14:23;12.90;99.90
63313;DHT22;49442;45.640;13.812;2023-11-18T14:16:53;12.80;99.90
63313;DHT22;49442;45.640;13.812;2023-11-18T14:19:26;12.70;99.90
63313;DHT22;49442;45.640;13.812;2023-11-18T14:21:53;12.60;99.90
63313;DHT22;49442;45.640;13.812;2023-11-18T14:24:19;12.60;99.90
63313;DHT22;49442;45.640;13.812;2023-11-18T14:26:45;12.60;99.90
63313;DHT22;49442;45.640;13.812;2023-11-18T14:29:11;12.50;99.90
63313;DHT22;49442;45.640;13.812;2023-11-18T14:31:38;12.50;99.90
63313;DHT22;49442;45.640;13.812;2023-11-18T14:34:04;12.50;99.90
63313;DHT22;49442;45.640;13.812;2023-11-18T14:36:30;12.60;99.90
63313;DHT22;49442;45.640;13.812;2023-11-18T14:38:56;12.60;99.90
63313;DHT22;49442;45.640;13.812;2023-11-18T14:41:24;12.60;99.90
63313;DHT22;49442;45.640;13.812;2023-11-18T14:44:00;12.70;99.90
63313;DHT22;49442;45.640;13.812;2023-11-18T14:46:29;12.70;99.90
63313;DHT22;49442;45.640;13.812;2023-11-18T14:48:59;12.70;99.90
63313;DHT22;49442;45.640;13.812;2023-11-18T14:51:25;12.70;99.90
63313;DHT22;49442;45.640;13.812;2023-11-18T14:53:51;12.60;99.90
63313;DHT22;49442;45.640;13.812;2023-11-18T14:56:17;12.60;99.90
63313;DHT22;49442;45.640;13.812;2023-11-18T14:58:43;12.60;99.90
63313;DHT22;49442;45.640;13.812;2023-11-18T15:01:15;12.50;99.90
63313;DHT22;49442;45.640;13.812;2023-11-18T15:03:41;12.50;99.90
63313;DHT22;49442;45.640;13.812;2023-11-18T15:06:07;12.40;99.90
63313;DHT22;49442;45.640;13.812;2023-11-18T15:08:35;12.30;99.90
63313;DHT22;49442;45.640;13.812;2023-11-18T15:11:01;12.20;99.90
63313;DHT22;49442;45.640;13.812;2023-11-18T15:13:27;12.00;99.90
63313;DHT22;49442;45.640;13.812;2023-11-18T15:15:53;11.90;99.90
63313;DHT22;49442;45.640;13.812;2023-11-18T15:18:18;11.90;99.90
63313;DHT22;49442;45.640;13.812;2023-11-18T15:20:45;11.70;99.90
63313;DHT22;49442;45.640;13.812;2023-11-18T15:23:11;11.60;99.90
63313;DHT22;49442;45.640;13.812;2023-11-18T15:25:38;11.50;99.90
63313;DHT22;49442;45.640;13.812;2023-11-18T15:28:04;11.40;99.90
63313;DHT22;49442;45.640;13.812;2023-11-18T15:30:38;11.20;99.90
63313;DHT22;49442;45.640;13.812;2023-11-18T15:33:08;11.10;99.90
63313;DHT22;49442;45.640;13.812;2023-11-18T15:35:37;11.00;99.90
63313;DHT22;49442;45.640;13.812;2023-11-18T15:38:04;10.90;99.90
63313;DHT22;49442;45.640;13.812;2023-11-18T15:40:34;10.80;99.90
63313;DHT22;49442;45.640;13.812;2023-11-18T15:43:05;10.70;99.90
63313;DHT22;49442;45.640;13.812;2023-11-18T15:45:37;10.70;99.90
63313;DHT22;49442;45.640;13.812;2023-11-18T15:48:04;10.60;99.90
63313;DHT22;49442;45.640;13.812;2023-11-18T15:50:36;10.50;99.90
63313;DHT22;49442;45.640;13.812;2023-11-18T15:53:05;10.50;99.90